createdAt,value
2023-01-08T00:00:10.364Z,0.00
2023-01-08T00:01:10.639Z,0.00
2023-01-08T00:02:10.896Z,0.00
2023-01-08T00:03:11.225Z,0.00
2023-01-08T00:04:11.528Z,0.00
2023-01-08T00:05:11.777Z,0.00
2023-01-08T00:06:12.085Z,0.00
2023-01-08T00:07:12.325Z,0.00
2023-01-08T00:08:12.633Z,0.00
2023-01-08T00:09:12.881Z,0.00
2023-01-08T00:10:13.175Z,0.00
2023-01-08T00:11:13.488Z,0.00
2023-01-08T00:12:13.752Z,0.00
2023-01-08T00:13:14.012Z,0.00
2023-01-08T00:14:14.280Z,0.00
2023-01-08T00:15:14.575Z,0.00
2023-01-08T00:16:14.922Z,0.00
2023-01-08T00:17:15.209Z,0.00
2023-01-08T00:18:15.418Z,0.00
2023-01-08T00:19:15.731Z,0.00
2023-01-08T00:20:15.971Z,0.00
2023-01-08T00:21:16.278Z,0.00
2023-01-08T00:22:16.557Z,0.00
2023-01-08T00:23:16.800Z,0.00
2023-01-08T00:24:17.074Z,0.00
2023-01-08T00:25:17.378Z,0.00
2023-01-08T00:26:17.695Z,0.00
2023-01-08T00:27:17.952Z,0.00
2023-01-08T00:28:18.182Z,0.00
2023-01-08T00:29:18.464Z,0.00
2023-01-08T00:30:18.756Z,0.00
2023-01-08T00:31:19.138Z,0.00
2023-01-08T00:32:19.324Z,0.00
2023-01-08T00:33:19.589Z,0.00
2023-01-08T00:34:19.851Z,0.00
2023-01-08T00:35:20.116Z,0.00
2023-01-08T00:36:20.392Z,0.00
2023-01-08T00:37:20.671Z,0.00
2023-01-08T00:38:20.914Z,0.00
2023-01-08T00:39:21.223Z,0.00
2023-01-08T00:40:21.462Z,0.00
2023-01-08T00:41:21.770Z,0.00
2023-01-08T00:42:22.023Z,0.00
2023-01-08T00:43:22.298Z,0.00
2023-01-08T00:44:22.535Z,0.00
2023-01-08T00:45:22.832Z,0.00
2023-01-08T00:46:23.182Z,0.00
2023-01-08T00:47:23.322Z,0.00
2023-01-08T00:48:23.630Z,0.00
2023-01-08T00:49:23.878Z,0.00
2023-01-08T00:50:24.157Z,0.00
2023-01-08T00:51:24.487Z,0.00
2023-01-08T00:52:24.735Z,0.00
2023-01-08T00:53:25.035Z,0.00
2023-01-08T00:54:25.296Z,0.00
2023-01-08T00:55:25.557Z,0.00
2023-01-08T00:56:25.896Z,0.00
2023-01-08T00:57:26.133Z,0.00
2023-01-08T00:58:26.402Z,0.00
2023-01-08T00:59:26.666Z,0.00
2023-01-08T01:00:26.911Z,0.00
2023-01-08T01:01:27.285Z,0.00
2023-01-08T01:02:27.507Z,0.00
2023-01-08T01:03:27.793Z,0.00
2023-01-08T01:04:28.134Z,0.00
2023-01-08T01:05:28.269Z,0.00
2023-01-08T01:06:28.582Z,0.00
2023-01-08T01:07:28.836Z,0.00
2023-01-08T01:08:29.078Z,0.00
2023-01-08T01:09:29.382Z,0.00
2023-01-08T01:10:29.653Z,0.00
2023-01-08T01:11:29.965Z,0.00
2023-01-08T01:12:30.216Z,0.00
2023-01-08T01:13:30.456Z,0.00
2023-01-08T01:14:30.768Z,0.00
2023-01-08T01:15:30.989Z,0.00
2023-01-08T01:16:31.328Z,0.00
2023-01-08T01:17:31.580Z,0.00
2023-01-08T01:18:31.808Z,0.00
2023-01-08T01:19:32.079Z,0.00
2023-01-08T01:20:32.371Z,0.00
2023-01-08T01:21:32.710Z,0.00
2023-01-08T01:22:32.966Z,0.00
2023-01-08T01:23:33.222Z,0.00
2023-01-08T01:24:33.544Z,0.00
2023-01-08T01:25:33.806Z,0.00
2023-01-08T01:26:34.105Z,0.00
2023-01-08T01:27:34.298Z,0.00
2023-01-08T01:28:34.597Z,0.00
2023-01-08T01:29:34.835Z,0.00
2023-01-08T01:30:35.227Z,0.00
2023-01-08T01:31:35.379Z,0.00
2023-01-08T01:32:35.610Z,0.00
2023-01-08T01:33:35.904Z,0.00
2023-01-08T01:34:36.166Z,0.00
2023-01-08T01:35:36.493Z,0.00
2023-01-08T01:36:36.762Z,0.00
2023-01-08T01:37:37.009Z,0.00
2023-01-08T01:38:37.255Z,0.00
2023-01-08T01:39:37.542Z,0.00
2023-01-08T01:40:37.862Z,0.00
2023-01-08T01:41:38.122Z,0.00
2023-01-08T01:42:38.361Z,0.00
2023-01-08T01:43:38.635Z,0.00
2023-01-08T01:44:38.908Z,0.00
2023-01-08T01:45:39.267Z,0.00
2023-01-08T01:46:39.536Z,0.00
2023-01-08T01:47:39.768Z,0.00
2023-01-08T01:48:40.077Z,0.00
2023-01-08T01:49:40.311Z,0.00
2023-01-08T01:50:40.598Z,0.00
2023-01-08T01:51:40.910Z,0.00
2023-01-08T01:52:41.189Z,0.00
2023-01-08T01:53:41.410Z,0.00
2023-01-08T01:54:41.693Z,0.00
2023-01-08T01:55:41.991Z,0.00
2023-01-08T01:56:42.235Z,0.00
2023-01-08T01:57:42.530Z,0.00
2023-01-08T01:58:42.818Z,0.00
2023-01-08T01:59:43.107Z,0.00
2023-01-08T02:00:43.347Z,0.00
2023-01-08T02:01:43.846Z,0.00
2023-01-08T02:02:43.967Z,0.00
2023-01-08T02:03:44.353Z,0.00
2023-01-08T02:04:44.504Z,0.00
2023-01-08T02:05:44.794Z,0.00
2023-01-08T02:06:45.105Z,0.00
2023-01-08T02:07:45.367Z,0.00
2023-01-08T02:08:45.625Z,0.00
2023-01-08T02:09:45.860Z,0.00
2023-01-08T02:10:46.130Z,0.00
2023-01-08T02:11:46.463Z,0.00
2023-01-08T02:12:46.703Z,0.00
2023-01-08T02:13:47.021Z,0.00
2023-01-08T02:14:47.245Z,0.00
2023-01-08T02:15:47.522Z,0.00
2023-01-08T02:16:47.878Z,0.00
2023-01-08T02:17:48.161Z,0.00
2023-01-08T02:18:48.393Z,0.00
2023-01-08T02:19:48.710Z,0.00
2023-01-08T02:20:48.944Z,0.00
2023-01-08T02:21:49.279Z,0.00
2023-01-08T02:22:49.532Z,0.00
2023-01-08T02:23:49.812Z,0.00
2023-01-08T02:24:50.064Z,0.00
2023-01-08T02:25:50.324Z,0.00
2023-01-08T02:26:50.620Z,0.00
2023-01-08T02:27:50.872Z,0.00
2023-01-08T02:28:51.163Z,0.00
2023-01-08T02:29:51.411Z,0.00
2023-01-08T02:30:51.715Z,0.00
2023-01-08T02:31:52.013Z,0.00
2023-01-08T02:32:52.293Z,0.00
2023-01-08T02:33:52.590Z,0.00
2023-01-08T02:34:52.822Z,0.00
2023-01-08T02:35:53.110Z,0.00
2023-01-08T02:36:53.396Z,0.00
2023-01-08T02:37:53.682Z,0.00
2023-01-08T02:38:53.951Z,0.00
2023-01-08T02:39:54.184Z,0.00
2023-01-08T02:40:54.495Z,0.00
2023-01-08T02:41:54.792Z,0.00
2023-01-08T02:42:55.019Z,0.00
2023-01-08T02:43:55.281Z,0.00
2023-01-08T02:44:55.546Z,0.00
2023-01-08T02:45:55.823Z,0.00
2023-01-08T02:46:56.109Z,0.00
2023-01-08T02:47:56.428Z,0.00
2023-01-08T02:48:56.654Z,0.00
2023-01-08T02:49:56.943Z,0.00
2023-01-08T02:50:57.180Z,0.00
2023-01-08T02:51:57.505Z,0.00
2023-01-08T02:52:57.748Z,0.00
2023-01-08T02:53:58.072Z,0.00
2023-01-08T02:54:58.326Z,0.00
2023-01-08T02:55:58.567Z,0.00
2023-01-08T02:56:58.862Z,0.00
2023-01-08T02:57:59.098Z,0.00
2023-01-08T02:58:59.394Z,0.00
2023-01-08T02:59:59.653Z,0.00
2023-01-08T03:00:59.922Z,0.00
2023-01-08T03:02:00.335Z,0.00
2023-01-08T03:03:00.445Z,0.00
2023-01-08T03:04:00.744Z,0.00
2023-01-08T03:05:00.981Z,0.00
2023-01-08T03:06:01.268Z,0.00
2023-01-08T03:07:01.569Z,0.00
2023-01-08T03:08:01.824Z,0.00
2023-01-08T03:09:02.084Z,0.00
2023-01-08T03:10:02.337Z,0.00
2023-01-08T03:11:02.560Z,0.00
2023-01-08T03:12:02.871Z,0.00
2023-01-08T03:13:03.115Z,0.00
2023-01-08T03:14:03.419Z,0.00
2023-01-08T03:15:03.671Z,0.00
2023-01-08T03:16:03.914Z,0.00
2023-01-08T03:17:04.236Z,0.00
2023-01-08T03:18:04.409Z,0.00
2023-01-08T03:19:04.654Z,0.00
2023-01-08T03:20:04.882Z,0.00
2023-01-08T03:21:05.176Z,0.00
2023-01-08T03:22:05.420Z,0.00
2023-01-08T03:23:05.680Z,0.00
2023-01-08T03:24:05.909Z,0.00
2023-01-08T03:25:06.231Z,0.00
2023-01-08T03:26:06.488Z,0.00
2023-01-08T03:27:06.772Z,0.00
2023-01-08T03:28:07.035Z,0.00
2023-01-08T03:29:07.279Z,0.00
2023-01-08T03:30:07.575Z,0.00
2023-01-08T03:31:07.916Z,0.00
2023-01-08T03:32:08.167Z,0.00
2023-01-08T03:33:08.395Z,0.00
2023-01-08T03:34:08.660Z,0.00
2023-01-08T03:35:08.939Z,0.00
2023-01-08T03:36:09.251Z,0.00
2023-01-08T03:37:09.499Z,0.00
2023-01-08T03:38:09.777Z,0.00
2023-01-08T03:39:10.097Z,0.00
2023-01-08T03:40:10.331Z,0.00
2023-01-08T03:41:10.641Z,0.00
2023-01-08T03:42:10.904Z,0.00
2023-01-08T03:43:11.129Z,0.00
2023-01-08T03:44:11.399Z,0.00
2023-01-08T03:45:11.698Z,0.00
2023-01-08T03:46:12.001Z,0.00
2023-01-08T03:47:12.249Z,0.00
2023-01-08T03:48:12.571Z,0.00
2023-01-08T03:49:12.798Z,0.00
2023-01-08T03:50:13.081Z,0.00
2023-01-08T03:51:13.317Z,0.00
2023-01-08T03:52:13.636Z,0.00
2023-01-08T03:53:13.891Z,0.00
2023-01-08T03:54:14.123Z,0.00
2023-01-08T03:55:14.437Z,0.00
2023-01-08T03:56:14.676Z,0.00
2023-01-08T03:57:14.956Z,0.00
2023-01-08T03:58:15.229Z,0.00
2023-01-08T03:59:15.507Z,0.00
2023-01-08T04:00:15.777Z,0.00
2023-01-08T04:01:16.199Z,0.00
2023-01-08T04:02:16.461Z,0.00
2023-01-08T04:03:16.621Z,0.00
2023-01-08T04:04:16.940Z,0.00
2023-01-08T04:05:17.161Z,0.00
2023-01-08T04:06:17.467Z,0.00
2023-01-08T04:07:17.744Z,0.00
2023-01-08T04:08:18.005Z,0.00
2023-01-08T04:09:18.232Z,0.00
2023-01-08T04:10:18.537Z,0.00
2023-01-08T04:11:18.743Z,0.00
2023-01-08T04:12:19.075Z,0.00
2023-01-08T04:13:19.319Z,0.00
2023-01-08T04:14:19.592Z,0.00
2023-01-08T04:15:19.882Z,0.00
2023-01-08T04:16:20.215Z,0.00
2023-01-08T04:17:20.484Z,0.00
2023-01-08T04:18:20.713Z,0.00
2023-01-08T04:19:20.993Z,0.00
2023-01-08T04:20:21.306Z,0.00
2023-01-08T04:21:21.533Z,0.00
2023-01-08T04:22:21.832Z,0.00
2023-01-08T04:23:22.099Z,0.00
2023-01-08T04:24:22.350Z,0.00
2023-01-08T04:25:22.571Z,0.00
2023-01-08T04:26:22.858Z,0.00
2023-01-08T04:27:23.168Z,0.00
2023-01-08T04:28:23.419Z,0.00
2023-01-08T04:29:23.661Z,0.00
2023-01-08T04:30:23.959Z,0.00
2023-01-08T04:31:24.293Z,0.00
2023-01-08T04:32:24.543Z,0.00
2023-01-08T04:33:24.788Z,0.00
2023-01-08T04:34:25.051Z,0.00
2023-01-08T04:35:25.349Z,0.00
2023-01-08T04:36:25.607Z,0.00
2023-01-08T04:37:25.873Z,0.00
2023-01-08T04:38:26.130Z,0.00
2023-01-08T04:39:26.433Z,0.00
2023-01-08T04:40:26.678Z,0.00
2023-01-08T04:41:26.911Z,0.00
2023-01-08T04:42:27.220Z,0.00
2023-01-08T04:43:27.495Z,0.00
2023-01-08T04:44:27.745Z,0.00
2023-01-08T04:45:27.976Z,0.00
2023-01-08T04:46:28.355Z,0.00
2023-01-08T04:47:28.616Z,0.00
2023-01-08T04:48:28.859Z,0.00
2023-01-08T04:49:29.163Z,0.00
2023-01-08T04:50:29.407Z,0.00
2023-01-08T04:51:29.691Z,0.00
2023-01-08T04:52:30.028Z,0.00
2023-01-08T04:53:30.246Z,0.00
2023-01-08T04:54:30.552Z,0.00
2023-01-08T04:55:30.808Z,0.00
2023-01-08T04:56:31.056Z,0.00
2023-01-08T04:57:31.306Z,0.00
2023-01-08T04:58:31.553Z,0.00
2023-01-08T04:59:31.861Z,0.00
2023-01-08T05:00:32.123Z,0.00
2023-01-08T05:01:32.499Z,0.00
2023-01-08T05:02:32.756Z,0.00
2023-01-08T05:03:32.976Z,0.00
2023-01-08T05:04:33.220Z,0.00
2023-01-08T05:05:33.445Z,0.00
2023-01-08T05:06:33.753Z,0.00
2023-01-08T05:07:33.999Z,0.00
2023-01-08T05:08:34.273Z,0.00
2023-01-08T05:09:34.512Z,0.00
2023-01-08T05:10:34.799Z,0.00
2023-01-08T05:11:35.062Z,0.00
2023-01-08T05:12:35.374Z,0.00
2023-01-08T05:13:35.634Z,0.00
2023-01-08T05:14:35.927Z,0.00
2023-01-08T05:15:36.277Z,0.00
2023-01-08T05:16:36.524Z,0.00
2023-01-08T05:17:36.794Z,0.00
2023-01-08T05:18:37.061Z,0.00
2023-01-08T05:19:38.397Z,0.00
2023-01-08T05:20:37.604Z,0.00
2023-01-08T05:21:37.832Z,0.00
2023-01-08T05:22:38.134Z,0.00
2023-01-08T05:23:38.392Z,0.00
2023-01-08T05:24:38.633Z,0.00
2023-01-08T05:25:38.927Z,0.00
2023-01-08T05:26:39.224Z,0.00
2023-01-08T05:27:39.478Z,0.00
2023-01-08T05:28:39.750Z,0.00
2023-01-08T05:29:39.976Z,0.00
2023-01-08T05:30:40.241Z,0.00
2023-01-08T05:31:40.517Z,0.00
2023-01-08T05:32:40.793Z,0.00
2023-01-08T05:33:41.051Z,0.00
2023-01-08T05:34:41.303Z,0.00
2023-01-08T05:35:41.578Z,0.00
2023-01-08T05:36:41.825Z,0.00
2023-01-08T05:37:42.067Z,0.00
2023-01-08T05:38:42.365Z,0.00
2023-01-08T05:39:42.603Z,0.00
2023-01-08T05:40:42.882Z,0.00
2023-01-08T05:41:43.142Z,0.00
2023-01-08T05:42:43.470Z,0.00
2023-01-08T05:43:43.722Z,0.00
2023-01-08T05:44:43.978Z,0.00
2023-01-08T05:45:44.256Z,0.00
2023-01-08T05:46:44.579Z,0.00
2023-01-08T05:47:44.822Z,0.00
2023-01-08T05:48:45.118Z,0.00
2023-01-08T05:49:46.275Z,0.00
2023-01-08T05:50:45.711Z,0.00
2023-01-08T05:51:45.963Z,0.00
2023-01-08T05:52:46.258Z,0.00
2023-01-08T05:53:46.547Z,0.00
2023-01-08T05:54:46.805Z,0.00
2023-01-08T05:55:47.068Z,0.00
2023-01-08T05:56:47.371Z,0.00
2023-01-08T05:57:47.676Z,0.00
2023-01-08T05:58:47.911Z,0.00
2023-01-08T05:59:48.214Z,0.00
2023-01-08T06:00:48.445Z,0.00
2023-01-08T06:01:48.796Z,0.00
2023-01-08T06:02:49.141Z,0.00
2023-01-08T06:03:49.313Z,0.00
2023-01-08T06:04:49.555Z,0.00
2023-01-08T06:05:49.815Z,0.00
2023-01-08T06:06:50.039Z,0.00
2023-01-08T06:07:50.342Z,0.00
2023-01-08T06:08:50.579Z,0.00
2023-01-08T06:09:50.884Z,0.00
2023-01-08T06:10:51.122Z,0.00
2023-01-08T06:11:51.415Z,0.00
2023-01-08T06:12:51.720Z,0.00
2023-01-08T06:13:51.959Z,0.00
2023-01-08T06:14:52.233Z,0.00
2023-01-08T06:15:52.572Z,0.00
2023-01-08T06:16:52.851Z,0.00
2023-01-08T06:17:53.120Z,0.00
2023-01-08T06:18:53.365Z,0.00
2023-01-08T06:19:53.630Z,0.00
2023-01-08T06:20:53.926Z,0.00
2023-01-08T06:21:54.158Z,0.00
2023-01-08T06:22:54.446Z,0.00
2023-01-08T06:23:54.669Z,0.00
2023-01-08T06:24:54.976Z,0.00
2023-01-08T06:25:55.212Z,0.00
2023-01-08T06:26:55.505Z,0.00
2023-01-08T06:27:55.783Z,0.00
2023-01-08T06:28:56.050Z,0.00
2023-01-08T06:29:56.346Z,0.00
2023-01-08T06:30:56.624Z,0.00
2023-01-08T06:31:56.880Z,0.00
2023-01-08T06:32:57.159Z,0.00
2023-01-08T06:33:57.430Z,0.00
2023-01-08T06:34:57.711Z,0.00
2023-01-08T06:35:57.977Z,0.00
2023-01-08T06:36:58.263Z,0.00
2023-01-08T06:37:58.584Z,0.00
2023-01-08T06:38:58.838Z,0.00
2023-01-08T06:39:59.051Z,0.00
2023-01-08T06:40:59.324Z,0.00
2023-01-08T06:41:59.622Z,0.00
2023-01-08T06:42:59.931Z,0.00
2023-01-08T06:44:00.207Z,0.00
2023-01-08T06:45:00.460Z,0.00
2023-01-08T06:46:00.715Z,0.00
2023-01-08T06:47:01.009Z,0.00
2023-01-08T06:48:01.258Z,0.00
2023-01-08T06:49:01.494Z,0.00
2023-01-08T06:50:01.768Z,0.00
2023-01-08T06:51:02.064Z,0.00
2023-01-08T06:52:02.365Z,0.00
2023-01-08T06:53:02.613Z,0.00
2023-01-08T06:54:02.869Z,0.00
2023-01-08T06:55:03.113Z,0.00
2023-01-08T06:56:03.400Z,0.00
2023-01-08T06:57:03.671Z,0.00
2023-01-08T06:58:04.111Z,0.00
2023-01-08T06:59:04.269Z,0.00
2023-01-08T07:00:04.540Z,0.00
2023-01-08T07:01:04.793Z,0.00
2023-01-08T07:02:05.141Z,0.00
2023-01-08T07:03:05.519Z,0.00
2023-01-08T07:04:05.671Z,0.00
2023-01-08T07:05:05.936Z,0.00
2023-01-08T07:06:06.219Z,0.00
2023-01-08T07:07:06.465Z,0.00
2023-01-08T07:08:06.729Z,4.00
2023-01-08T07:09:07.030Z,4.00
2023-01-08T07:10:07.262Z,4.00
2023-01-08T07:11:07.533Z,8.00
2023-01-08T07:12:07.850Z,4.00
2023-01-08T07:13:08.092Z,8.00
2023-01-08T07:14:08.362Z,8.00
2023-01-08T07:15:08.573Z,8.00
2023-01-08T07:16:08.979Z,8.00
2023-01-08T07:17:09.147Z,12.00
2023-01-08T07:18:09.443Z,12.00
2023-01-08T07:19:09.717Z,16.00
2023-01-08T07:20:10.003Z,16.00
2023-01-08T07:21:10.297Z,20.00
2023-01-08T07:22:10.559Z,16.00
2023-01-08T07:23:10.842Z,20.00
2023-01-08T07:24:11.130Z,20.00
2023-01-08T07:25:11.414Z,24.00
2023-01-08T07:26:11.719Z,28.00
2023-01-08T07:27:11.973Z,28.00
2023-01-08T07:28:12.309Z,32.00
2023-01-08T07:29:12.543Z,36.00
2023-01-08T07:30:28.377Z,40.00
2023-01-08T07:31:14.139Z,44.00
2023-01-08T07:32:13.343Z,52.00
2023-01-08T07:33:13.659Z,60.00
2023-01-08T07:34:15.319Z,64.00
2023-01-08T07:35:14.226Z,72.00
2023-01-08T07:36:14.540Z,68.00
2023-01-08T07:37:14.821Z,56.00
2023-01-08T07:38:15.067Z,48.00
2023-01-08T07:39:15.364Z,44.00
2023-01-08T07:40:15.683Z,40.00
2023-01-08T07:41:15.937Z,40.00
2023-01-08T07:42:16.242Z,36.00
2023-01-08T07:43:16.519Z,44.00
2023-01-08T07:44:16.803Z,40.00
2023-01-08T07:45:17.058Z,36.00
2023-01-08T07:46:17.392Z,44.00
2023-01-08T07:47:17.665Z,40.00
2023-01-08T07:48:17.965Z,44.00
2023-01-08T07:49:18.247Z,40.00
2023-01-08T07:50:18.493Z,36.00
2023-01-08T07:51:18.802Z,36.00
2023-01-08T07:52:19.083Z,36.00
2023-01-08T07:53:19.383Z,36.00
2023-01-08T07:54:19.666Z,36.00
2023-01-08T07:55:19.951Z,40.00
2023-01-08T07:56:20.222Z,44.00
2023-01-08T07:57:20.507Z,48.00
2023-01-08T07:58:20.812Z,48.00
2023-01-08T07:59:21.084Z,56.00
2023-01-08T08:00:21.364Z,72.00
2023-01-08T08:01:21.774Z,80.00
2023-01-08T08:02:21.973Z,72.00
2023-01-08T08:03:22.270Z,80.00
2023-01-08T08:04:22.543Z,76.00
2023-01-08T08:05:22.795Z,72.00
2023-01-08T08:06:23.099Z,72.00
2023-01-08T08:07:23.385Z,76.00
2023-01-08T08:08:23.664Z,84.00
2023-01-08T08:09:23.942Z,88.00
2023-01-08T08:10:24.206Z,108.00
2023-01-08T08:11:24.464Z,108.00
2023-01-08T08:12:24.794Z,100.00
2023-01-08T08:13:25.038Z,96.00
2023-01-08T08:14:25.352Z,104.00
2023-01-08T08:15:25.655Z,128.00
2023-01-08T08:16:25.995Z,124.00
2023-01-08T08:17:26.237Z,116.00
2023-01-08T08:18:26.561Z,116.00
2023-01-08T08:19:26.833Z,116.00
2023-01-08T08:20:27.182Z,124.00
2023-01-08T08:21:27.411Z,108.00
2023-01-08T08:22:27.735Z,116.00
2023-01-08T08:23:28.034Z,124.00
2023-01-08T08:24:28.287Z,140.00
2023-01-08T08:25:28.621Z,140.00
2023-01-08T08:26:28.913Z,120.00
2023-01-08T08:27:29.164Z,112.00
2023-01-08T08:28:29.466Z,108.00
2023-01-08T08:29:29.792Z,116.00
2023-01-08T08:30:30.095Z,156.00
2023-01-08T08:31:30.462Z,168.00
2023-01-08T08:32:30.631Z,172.00
2023-01-08T08:33:30.974Z,156.00
2023-01-08T08:34:31.289Z,140.00
2023-01-08T08:35:31.580Z,136.00
2023-01-08T08:36:31.876Z,140.00
2023-01-08T08:37:32.126Z,128.00
2023-01-08T08:38:32.473Z,116.00
2023-01-08T08:39:32.742Z,116.00
2023-01-08T08:40:33.038Z,124.00
2023-01-08T08:41:33.316Z,132.00
2023-01-08T08:42:33.608Z,120.00
2023-01-08T08:43:33.893Z,124.00
2023-01-08T08:44:34.589Z,152.00
2023-01-08T08:45:34.411Z,212.00
2023-01-08T08:46:34.709Z,220.00
2023-01-08T08:47:35.025Z,248.00
2023-01-08T08:48:35.329Z,244.00
2023-01-08T08:49:35.651Z,236.00
2023-01-08T08:50:35.897Z,268.00
2023-01-08T08:51:36.248Z,304.00
2023-01-08T08:52:36.560Z,328.00
2023-01-08T08:53:36.816Z,380.00
2023-01-08T08:54:37.144Z,392.00
2023-01-08T08:55:38.290Z,420.00
2023-01-08T08:56:37.728Z,452.00
2023-01-08T08:57:38.077Z,552.00
2023-01-08T08:58:38.335Z,628.00
2023-01-08T08:59:38.619Z,684.00
2023-01-08T09:00:38.942Z,692.00
2023-01-08T09:01:39.324Z,688.00
2023-01-08T09:02:39.670Z,744.00
2023-01-08T09:03:39.913Z,876.00
2023-01-08T09:04:40.148Z,988.00
2023-01-08T09:05:40.458Z,1100.00
2023-01-08T09:06:40.772Z,1224.00
2023-01-08T09:07:41.114Z,1424.00
2023-01-08T09:08:41.429Z,1568.00
2023-01-08T09:09:41.708Z,1664.00
2023-01-08T09:10:42.107Z,1760.00
2023-01-08T09:11:42.406Z,1916.00
2023-01-08T09:12:42.708Z,2108.00
2023-01-08T09:13:43.015Z,2160.00
2023-01-08T09:14:43.336Z,2332.00
2023-01-08T09:15:43.642Z,2468.00
2023-01-08T09:16:43.926Z,2528.00
2023-01-08T09:17:44.284Z,2476.00
2023-01-08T09:18:44.557Z,2524.00
2023-01-08T09:19:44.897Z,2568.00
2023-01-08T09:20:45.176Z,2596.00
2023-01-08T09:21:45.502Z,2648.00
2023-01-08T09:22:45.865Z,2708.00
2023-01-08T09:23:46.143Z,2716.00
2023-01-08T09:24:46.485Z,2752.00
2023-01-08T09:25:46.784Z,2716.00
2023-01-08T09:26:47.068Z,2616.00
2023-01-08T09:27:47.439Z,2488.00
2023-01-08T09:28:47.728Z,2456.00
2023-01-08T09:29:48.049Z,2452.00
2023-01-08T09:30:48.322Z,2440.00
2023-01-08T09:31:48.705Z,2388.00
2023-01-08T09:32:48.990Z,2296.00
2023-01-08T09:33:49.277Z,2212.00
2023-01-08T09:34:49.746Z,2176.00
2023-01-08T09:35:49.912Z,2172.00
2023-01-08T09:36:50.234Z,2132.00
2023-01-08T09:37:50.570Z,2108.00
2023-01-08T09:38:50.878Z,2112.00
2023-01-08T09:40:01.420Z,2088.00
2023-01-08T09:40:52.431Z,2012.00
2023-01-08T09:41:51.656Z,1956.00
2023-01-08T09:42:52.018Z,1928.00
2023-01-08T09:43:52.288Z,1936.00
2023-01-08T09:44:52.613Z,1940.00
2023-01-08T09:45:52.965Z,2032.00
2023-01-08T09:46:53.356Z,2156.00
2023-01-08T09:47:53.530Z,2296.00
2023-01-08T09:48:53.835Z,2372.00
2023-01-08T09:49:54.186Z,2320.00
2023-01-08T09:50:54.476Z,2184.00
2023-01-08T09:51:54.765Z,1920.00
2023-01-08T09:52:55.123Z,1776.00
2023-01-08T09:53:55.456Z,1788.00
2023-01-08T09:54:55.758Z,1760.00
2023-01-08T09:56:09.249Z,1748.00
2023-01-08T09:56:57.308Z,1720.00
2023-01-08T09:57:56.560Z,1632.00
2023-01-08T09:58:56.850Z,1892.00
2023-01-08T09:59:57.181Z,2132.00
2023-01-08T10:00:57.519Z,2260.00
2023-01-08T10:01:57.941Z,2024.00
2023-01-08T10:02:58.199Z,2092.00
2023-01-08T10:03:58.367Z,2040.00
2023-01-08T10:04:58.724Z,2292.00
2023-01-08T10:05:59.015Z,2376.00
2023-01-08T10:06:59.327Z,2348.00
2023-01-08T10:07:59.666Z,2472.00
2023-01-08T10:08:59.982Z,2444.00
2023-01-08T10:10:00.259Z,2336.00
2023-01-08T10:11:00.624Z,2228.00
2023-01-08T10:12:00.902Z,2260.00
2023-01-08T10:13:01.229Z,2228.00
2023-01-08T10:14:01.535Z,2168.00
2023-01-08T10:15:01.850Z,2176.00
2023-01-08T10:16:02.238Z,2148.00
2023-01-08T10:17:02.521Z,1908.00
2023-01-08T10:18:02.825Z,1828.00
2023-01-08T10:19:03.145Z,1724.00
2023-01-08T10:20:03.439Z,1632.00
2023-01-08T10:21:03.747Z,1580.00
2023-01-08T10:22:04.044Z,1572.00
2023-01-08T10:23:04.412Z,1472.00
2023-01-08T10:24:04.699Z,1420.00
2023-01-08T10:25:05.011Z,1400.00
2023-01-08T10:26:05.308Z,1404.00
2023-01-08T10:27:05.594Z,1428.00
2023-01-08T10:28:05.940Z,1424.00
2023-01-08T10:29:06.248Z,1404.00
2023-01-08T10:30:06.544Z,1420.00
2023-01-08T10:31:06.899Z,1640.00
2023-01-08T10:32:07.062Z,1788.00
2023-01-08T10:33:07.414Z,1748.00
2023-01-08T10:34:07.688Z,1964.00
2023-01-08T10:35:08.049Z,2032.00
2023-01-08T10:36:08.342Z,2040.00
2023-01-08T10:37:08.673Z,2004.00
2023-01-08T10:38:09.017Z,1984.00
2023-01-08T10:39:09.328Z,1980.00
2023-01-08T10:40:09.620Z,1988.00
2023-01-08T10:41:09.933Z,2200.00
2023-01-08T10:42:10.237Z,2188.00
2023-01-08T10:43:10.570Z,2372.00
2023-01-08T10:44:10.844Z,2252.00
2023-01-08T10:45:11.198Z,2004.00
2023-01-08T10:46:11.461Z,1816.00
2023-01-08T10:47:11.773Z,1912.00
2023-01-08T10:48:12.083Z,1964.00
2023-01-08T10:49:12.400Z,2044.00
2023-01-08T10:50:12.762Z,2280.00
2023-01-08T10:51:13.033Z,2292.00
2023-01-08T10:52:13.380Z,2412.00
2023-01-08T10:53:13.712Z,2056.00
2023-01-08T10:54:14.007Z,1988.00
2023-01-08T10:55:14.284Z,1912.00
2023-01-08T10:56:14.623Z,1844.00
2023-01-08T10:57:14.904Z,1680.00
2023-01-08T10:58:15.290Z,1508.00
2023-01-08T10:59:15.564Z,1528.00
2023-01-08T11:00:15.888Z,1552.00
2023-01-08T11:01:16.309Z,1580.00
2023-01-08T11:02:16.524Z,1600.00
2023-01-08T11:03:16.844Z,1656.00
2023-01-08T11:04:17.180Z,2092.00
2023-01-08T11:05:17.501Z,2376.00
2023-01-08T11:06:17.776Z,2244.00
2023-01-08T11:07:18.101Z,2064.00
2023-01-08T11:08:18.468Z,1956.00
2023-01-08T11:09:18.772Z,1880.00
2023-01-08T11:10:19.084Z,1828.00
2023-01-08T11:11:19.408Z,1876.00
2023-01-08T11:12:19.676Z,1788.00
2023-01-08T11:13:20.036Z,1832.00
2023-01-08T11:14:20.342Z,2036.00
2023-01-08T11:15:20.655Z,1920.00
2023-01-08T11:16:20.977Z,2232.00
2023-01-08T11:17:21.266Z,2308.00
2023-01-08T11:18:21.614Z,2116.00
2023-01-08T11:19:21.947Z,2036.00
2023-01-08T11:20:22.406Z,1792.00
2023-01-08T11:21:22.593Z,1816.00
2023-01-08T11:22:22.884Z,1660.00
2023-01-08T11:23:23.214Z,1632.00
2023-01-08T11:24:23.547Z,1892.00
2023-01-08T11:25:23.866Z,1804.00
2023-01-08T11:26:24.205Z,1592.00
2023-01-08T11:27:24.517Z,1492.00
2023-01-08T11:28:24.854Z,1364.00
2023-01-08T11:29:25.145Z,1360.00
2023-01-08T11:30:25.424Z,1676.00
2023-01-08T11:31:25.802Z,1848.00
2023-01-08T11:32:26.081Z,1900.00
2023-01-08T11:33:26.409Z,1800.00
2023-01-08T11:34:26.762Z,2172.00
2023-01-08T11:35:27.030Z,2268.00
2023-01-08T11:36:27.395Z,2404.00
2023-01-08T11:37:27.655Z,2656.00
2023-01-08T11:38:27.989Z,2900.00
2023-01-08T11:39:28.321Z,2948.00
2023-01-08T11:40:28.639Z,3296.00
2023-01-08T11:41:28.997Z,3160.00
2023-01-08T11:42:30.155Z,3188.00
2023-01-08T11:43:30.304Z,2780.00
2023-01-08T11:44:29.889Z,2512.00
2023-01-08T11:45:30.283Z,2640.00
2023-01-08T11:46:30.475Z,2480.00
2023-01-08T11:47:30.750Z,2616.00
2023-01-08T11:48:31.105Z,2620.00
2023-01-08T11:49:31.380Z,2504.00
2023-01-08T11:50:31.728Z,2536.00
2023-01-08T11:51:32.008Z,2332.00
2023-01-08T11:52:32.349Z,2324.00
2023-01-08T11:53:32.642Z,2272.00
2023-01-08T11:54:32.988Z,2228.00
2023-01-08T11:55:33.306Z,2228.00
2023-01-08T11:56:33.610Z,2212.00
2023-01-08T11:57:33.907Z,2104.00
2023-01-08T11:58:34.189Z,2032.00
2023-01-08T11:59:34.537Z,2076.00
2023-01-08T12:00:34.875Z,2016.00
2023-01-08T12:01:35.187Z,2232.00
2023-01-08T12:02:35.517Z,2356.00
2023-01-08T12:03:35.854Z,2240.00
2023-01-08T12:04:36.049Z,2064.00
2023-01-08T12:05:36.333Z,2036.00
2023-01-08T12:06:37.159Z,2088.00
2023-01-08T12:07:36.883Z,2068.00
2023-01-08T12:08:37.159Z,2272.00
2023-01-08T12:09:37.504Z,2272.00
2023-01-08T12:10:37.855Z,2044.00
2023-01-08T12:11:38.139Z,2136.00
2023-01-08T12:12:38.449Z,2356.00
2023-01-08T12:13:38.755Z,2376.00
2023-01-08T12:14:39.022Z,2188.00
2023-01-08T12:15:39.354Z,1912.00
2023-01-08T12:16:39.702Z,1724.00
2023-01-08T12:17:40.016Z,1928.00
2023-01-08T12:18:40.306Z,2188.00
2023-01-08T12:19:40.606Z,2404.00
2023-01-08T12:20:40.964Z,2564.00
2023-01-08T12:21:41.271Z,2468.00
2023-01-08T12:22:41.570Z,2860.00
2023-01-08T12:23:41.878Z,3020.00
2023-01-08T12:24:42.169Z,3012.00
2023-01-08T12:25:42.462Z,2596.00
2023-01-08T12:26:42.803Z,2620.00
2023-01-08T12:27:56.413Z,2896.00
2023-01-08T12:28:44.350Z,3244.00
2023-01-08T12:29:43.701Z,2776.00
2023-01-08T12:30:44.023Z,2464.00
2023-01-08T12:31:48.733Z,2748.00
2023-01-08T12:32:45.636Z,2784.00
2023-01-08T12:33:44.992Z,2672.00
2023-01-08T12:34:45.288Z,2824.00
2023-01-08T12:35:45.588Z,2668.00
2023-01-08T12:36:45.905Z,2464.00
2023-01-08T12:37:46.198Z,2112.00
2023-01-08T12:38:46.474Z,1848.00
2023-01-08T12:39:46.782Z,1664.00
2023-01-08T12:40:47.129Z,1836.00
2023-01-08T12:41:47.475Z,1884.00
2023-01-08T12:43:00.111Z,1832.00
2023-01-08T12:43:49.022Z,1672.00
2023-01-08T12:44:48.396Z,1560.00
2023-01-08T12:45:48.718Z,1384.00
2023-01-08T12:46:49.005Z,1460.00
2023-01-08T12:47:49.319Z,1284.00
2023-01-08T12:48:51.678Z,1444.00
2023-01-08T12:49:49.864Z,1420.00
2023-01-08T12:50:50.203Z,1484.00
2023-01-08T12:51:50.512Z,1676.00
2023-01-08T12:52:50.867Z,1824.00
2023-01-08T12:53:51.167Z,2136.00